Yuedian 58 — BYFE — position and weather

sailwx.info

Track history (hours):
 
Tides and Currents Weather Stations Pressure Air Temp Water Temp Dewpoint Dewpoint Depression Visibility Wind Speed Wind Dir Waves Ship Positions

Yuedian 58

Last reported at 2014-Oct-26 08:27 UTC. Time now 2014-Oct-26 09:31 UTC.
Position N 31°37' E 121°18'.

Length 190 m; draft 10.5 m.

Type: Cargo ship. MMSI: 414008000.

Date/timePositionNaut miles runAvg speedWind from/ knotsBaromVisibWave heightAir tempDewpointWater temp
2014-Oct-26 08:27N 31°37' E 121°18'0 0.1
2014-Oct-26 07:33N 31°37' E 121°18'0 0.0
2014-Oct-26 06:33N 31°37' E 121°18'0 0.0
2014-Oct-26 05:33N 31°37' E 121°18'0 0.0
2014-Oct-26 04:27N 31°37' E 121°18'0 0.1
2014-Oct-26 03:33N 31°37' E 121°18'0 0.2
2014-Oct-26 02:33N 31°37' E 121°18'0 0.0
2014-Oct-26 01:33N 31°37' E 121°18'0 0.0
2014-Oct-25 23:33N 31°37' E 121°18'0 0.0
2014-Oct-25 22:09N 31°37' E 121°18'0 0.0
2014-Oct-25 21:33N 31°37' E 121°18'0 0.1
2014-Oct-25 20:33N 31°37' E 121°18'0 0.2
2014-Oct-25 19:33N 31°37' E 121°18'0 0.0
2014-Oct-25 18:33N 31°37' E 121°18'0 0.0
2014-Oct-25 17:27N 31°37' E 121°18'0 0.0
2014-Oct-25 16:27N 31°37' E 121°18'0 0.0
2014-Oct-25 15:33N 31°37' E 121°18'0 0.2
2014-Oct-25 14:33N 31°37' E 121°18'0 0.1
2014-Oct-25 13:33N 31°37' E 121°18'0 0.0
2014-Oct-25 12:24N 31°37' E 121°18'0 0.0
2014-Oct-25 11:33N 31°37' E 121°18'0 0.0
2014-Oct-25 10:18N 31°37' E 121°18'0 0.1
2014-Oct-25 09:13N 31°37' E 121°18'3 5.3
2014-Oct-25 08:33N 31°34' E 121°19'10 9.6
2014-Oct-25 07:33N 31°28' E 121°28'7 6.7
2014-Oct-25 06:33N 31°24' E 121°34'8 8.3
2014-Oct-25 05:33N 31°20' E 121°43'11 9.5
2014-Oct-25 04:26N 31°16' E 121°54'35 6.8
2014-Oct-24 23:15N 31°24' E 122°34'1113.6
2014-Oct-24 22:26N 31°35' E 122°37'1614.5
2014-Oct-24 21:21N 31°50' E 122°42'28812.6
2014-Oct-23 22:30N 36°38' E 122°49'1011.0
2014-Oct-23 21:33N 36°48' E 122°48'1110.6
2014-Oct-23 20:33N 36°59' E 122°48'1110.9
2014-Oct-23 19:33N 37°10' E 122°48'1212.1
2014-Oct-23 18:33N 37°22' E 122°48'1312.9
2014-Oct-23 17:32N 37°33' E 122°39'1313.8
2014-Oct-23 16:33N 37°41' E 122°25'1413.2
2014-Oct-23 15:28N 37°48' E 122°09'1212.8
2014-Oct-23 14:33N 37°55' E 121°58'1312.5
2014-Oct-23 13:32N 38°02' E 121°44'1312.3
2014-Oct-23 12:27N 38°10' E 121°30'1212.6
2014-Oct-23 11:32N 38°18' E 121°20'  
2014-Oct-20 03:33N 38°22' E 121°25'9313.2
2014-Oct-19 20:34N 37°21' E 122°53'1714.4
2014-Oct-19 19:23N 37°04' E 122°53'1214.4
2014-Oct-19 18:32N 36°52' E 122°53'34713.6
2014-Oct-18 17:05N 31°05' E 122°32'712.4
2014-Oct-18 16:33N 31°06' E 122°25'1714.0
2014-Oct-18 15:19N 31°14' E 122°06'1114.5
2014-Oct-18 14:33N 31°16' E 121°53'1313.0
2014-Oct-18 13:33N 31°21' E 121°39'9 8.8
2014-Oct-18 12:33N 31°25' E 121°31'6 6.4
2014-Oct-18 11:34N 31°30' E 121°25'1110.4
2014-Oct-18 10:33N 31°37' E 121°16'1312.7
2014-Oct-18 09:33N 31°45' E 121°05'1010.0
2014-Oct-18 08:33N 31°49' E 120°54'1212.3
2014-Oct-18 07:33N 32°00' E 120°48'1110.9
2014-Oct-18 06:33N 32°01' E 120°35'9 8.8
2014-Oct-18 05:33N 32°02' E 120°25'1211.9
2014-Oct-18 04:33N 31°56' E 120°13'1212.5
2014-Oct-18 03:34N 31°60' E 119°59'2013.8
2014-Oct-18 02:07N 32°18' E 119°50'15 9.4
2014-Oct-18 00:29N 32°14' E 119°33'1010.4
2014-Oct-17 23:31N 32°12' E 119°21'1 1.5
2014-Oct-17 22:33N 32°11' E 119°19'0 0.0
2014-Oct-17 21:33N 32°11' E 119°19'0 0.0
2014-Oct-17 20:27N 32°11' E 119°19'0 0.0
2014-Oct-17 19:30N 32°11' E 119°19'0 0.0
2014-Oct-17 18:24N 32°11' E 119°19'0 0.0
2014-Oct-16 20:30N 32°11' E 119°19'0 0.0
2014-Oct-16 18:15N 32°11' E 119°19'0 0.0
2014-Oct-16 15:33N 32°11' E 119°19'0 0.0
2014-Oct-16 13:15N 32°11' E 119°19'  
Track history (hours):
 
Tides and Currents Weather Stations Pressure Air Temp Water Temp Dewpoint Dewpoint Depression Visibility Wind Speed Wind Dir Waves Ship Positions

Yuedian 58

Last reported at 2014-Oct-26 08:27 UTC. Time now 2014-Oct-26 09:31 UTC.
Position N 31°37' E 121°18'.

Length 190 m; draft 10.5 m.

Type: Cargo ship. MMSI: 414008000.

Date/timePositionNaut miles runAvg speedWind from/ knotsBaromVisibWave heightAir tempDewpointWater temp
2014-Oct-26 08:27N 31°37' E 121°18'0 0.1
2014-Oct-26 07:33N 31°37' E 121°18'0 0.0
2014-Oct-26 06:33N 31°37' E 121°18'0 0.0
2014-Oct-26 05:33N 31°37' E 121°18'0 0.0
2014-Oct-26 04:27N 31°37' E 121°18'0 0.1
2014-Oct-26 03:33N 31°37' E 121°18'0 0.2
2014-Oct-26 02:33N 31°37' E 121°18'0 0.0
2014-Oct-26 01:33N 31°37' E 121°18'0 0.0
2014-Oct-25 23:33N 31°37' E 121°18'0 0.0
2014-Oct-25 22:09N 31°37' E 121°18'0 0.0
2014-Oct-25 21:33N 31°37' E 121°18'0 0.1
2014-Oct-25 20:33N 31°37' E 121°18'0 0.2
2014-Oct-25 19:33N 31°37' E 121°18'0 0.0
2014-Oct-25 18:33N 31°37' E 121°18'0 0.0
2014-Oct-25 17:27N 31°37' E 121°18'0 0.0
2014-Oct-25 16:27N 31°37' E 121°18'0 0.0
2014-Oct-25 15:33N 31°37' E 121°18'0 0.2
2014-Oct-25 14:33N 31°37' E 121°18'0 0.1
2014-Oct-25 13:33N 31°37' E 121°18'0 0.0
2014-Oct-25 12:24N 31°37' E 121°18'0 0.0
2014-Oct-25 11:33N 31°37' E 121°18'0 0.0
2014-Oct-25 10:18N 31°37' E 121°18'0 0.1
2014-Oct-25 09:13N 31°37' E 121°18'3 5.3
2014-Oct-25 08:33N 31°34' E 121°19'10 9.6
2014-Oct-25 07:33N 31°28' E 121°28'7 6.7
2014-Oct-25 06:33N 31°24' E 121°34'8 8.3
2014-Oct-25 05:33N 31°20' E 121°43'11 9.5
2014-Oct-25 04:26N 31°16' E 121°54'35 6.8
2014-Oct-24 23:15N 31°24' E 122°34'1113.6
2014-Oct-24 22:26N 31°35' E 122°37'1614.5
2014-Oct-24 21:21N 31°50' E 122°42'28812.6
2014-Oct-23 22:30N 36°38' E 122°49'1011.0
2014-Oct-23 21:33N 36°48' E 122°48'1110.6
2014-Oct-23 20:33N 36°59' E 122°48'1110.9
2014-Oct-23 19:33N 37°10' E 122°48'1212.1
2014-Oct-23 18:33N 37°22' E 122°48'1312.9
2014-Oct-23 17:32N 37°33' E 122°39'1313.8
2014-Oct-23 16:33N 37°41' E 122°25'1413.2
2014-Oct-23 15:28N 37°48' E 122°09'1212.8
2014-Oct-23 14:33N 37°55' E 121°58'1312.5
2014-Oct-23 13:32N 38°02' E 121°44'1312.3
2014-Oct-23 12:27N 38°10' E 121°30'1212.6
2014-Oct-23 11:32N 38°18' E 121°20'  
2014-Oct-20 03:33N 38°22' E 121°25'9313.2
2014-Oct-19 20:34N 37°21' E 122°53'1714.4
2014-Oct-19 19:23N 37°04' E 122°53'1214.4
2014-Oct-19 18:32N 36°52' E 122°53'34713.6
2014-Oct-18 17:05N 31°05' E 122°32'712.4
2014-Oct-18 16:33N 31°06' E 122°25'1714.0
2014-Oct-18 15:19N 31°14' E 122°06'1114.5
2014-Oct-18 14:33N 31°16' E 121°53'1313.0
2014-Oct-18 13:33N 31°21' E 121°39'9 8.8
2014-Oct-18 12:33N 31°25' E 121°31'6 6.4
2014-Oct-18 11:34N 31°30' E 121°25'1110.4
2014-Oct-18 10:33N 31°37' E 121°16'1312.7
2014-Oct-18 09:33N 31°45' E 121°05'1010.0
2014-Oct-18 08:33N 31°49' E 120°54'1212.3
2014-Oct-18 07:33N 32°00' E 120°48'1110.9
2014-Oct-18 06:33N 32°01' E 120°35'9 8.8
2014-Oct-18 05:33N 32°02' E 120°25'1211.9
2014-Oct-18 04:33N 31°56' E 120°13'1212.5
2014-Oct-18 03:34N 31°60' E 119°59'2013.8
2014-Oct-18 02:07N 32°18' E 119°50'15 9.4
2014-Oct-18 00:29N 32°14' E 119°33'1010.4
2014-Oct-17 23:31N 32°12' E 119°21'1 1.5
2014-Oct-17 22:33N 32°11' E 119°19'0 0.0
2014-Oct-17 21:33N 32°11' E 119°19'0 0.0
2014-Oct-17 20:27N 32°11' E 119°19'0 0.0
2014-Oct-17 19:30N 32°11' E 119°19'0 0.0
2014-Oct-17 18:24N 32°11' E 119°19'0 0.0
2014-Oct-16 20:30N 32°11' E 119°19'0 0.0
2014-Oct-16 18:15N 32°11' E 119°19'0 0.0
2014-Oct-16 15:33N 32°11' E 119°19'0 0.0
2014-Oct-16 13:15N 32°11' E 119°19'  

Dump ship's entire track history